Mozyr', Belarus
Current Conditions -  °F | °C
As of 7:00 PM on Thursday 30 Oct 2014 (Local Time) from UMGG Reporting Station
Smoke Smoke  
Wind Chill: 34°   Ceiling: Unl
Heat Index: 39°   Visibility: 3mi
Dew Point: 28°   Wind: 7mph
Humidity: 65%   Direction: 190°S
Pressure: 30.21"   Gusts: NA
Location:  52.05°N, 29.26°E
Report Text: UMGG 301700Z 19003MPS 5000 FU NSC 04/M02 Q1023 R10/CLRD//NOSIG
Loading
Personal Weather Stations






























Interactive Weather Map
Tropical Storm Tracking
New forecast layout! Learn more

10-Day Weather Forecast

Advertisements
Track Severe Weather on mobile